Toyomasa Maru — JJ3927 — position and weather

sailwx.info

Track history (hours):
 
Tides and Currents Weather Stations Pressure Air Temp Water Temp Dewpoint Dewpoint Depression Visibility Wind Speed Wind Dir Waves Ship Positions

Toyomasa Maru

Last reported at 2017-Sep-24 07:07 UTC. Time now 2017-Sep-24 10:19 UTC.
Position N 35°30' E 140°02'.

Length 101 m; draft 4.3 m.

Type: Tanker. MMSI: 431300401.

Date/timePositionNaut miles runAvg speedWind from/ knotsBaromVisibWave heightAir tempDewpointWater temp
2017-Sep-24 07:07N 35°30' E 140°02'1 3.6
2017-Sep-24 06:58N 35°30' E 140°01'2 4.2
2017-Sep-24 06:30N 35°32' E 139°60'1 2.2
2017-Sep-24 06:00N 35°33' E 140°00'0 0.2
2017-Sep-24 04:50N 35°33' E 140°00'0 0.0
2017-Sep-24 03:50N 35°33' E 140°00'0 0.0
2017-Sep-23 23:26N 35°33' E 140°00'0 0.0
2017-Sep-23 22:35N 35°33' E 140°00'0 0.0
2017-Sep-23 19:38N 35°33' E 140°00'  
2017-Sep-21 09:43N 34°56' E 139°30'512.1
2017-Sep-21 09:16N 34°60' E 139°34'312.9
2017-Sep-21 09:00N 35°02' E 139°37'612.9
2017-Sep-21 08:30N 35°07' E 139°43'612.7
2017-Sep-21 08:00N 35°12' E 139°46'611.9
2017-Sep-21 07:30N 35°18' E 139°44'611.2
2017-Sep-21 07:00N 35°23' E 139°42'611.5
2017-Sep-21 06:30N 35°28' E 139°47'4 8.4
2017-Sep-21 06:00N 35°32' E 139°48'0 0.1
2017-Sep-21 05:30N 35°32' E 139°48'0 0.0
2017-Sep-21 05:00N 35°32' E 139°48'0 0.0
2017-Sep-21 04:30N 35°32' E 139°48'0 0.0
2017-Sep-21 04:00N 35°32' E 139°48'0 0.0
2017-Sep-21 03:30N 35°32' E 139°48'0 0.0
2017-Sep-21 03:00N 35°32' E 139°48'0 0.0
2017-Sep-21 02:27N 35°32' E 139°48'0 0.0
2017-Sep-21 02:00N 35°32' E 139°48'0 0.0
2017-Sep-21 01:30N 35°32' E 139°48'0 0.0
2017-Sep-21 01:01N 35°32' E 139°48'1 1.9
2017-Sep-21 00:30N 35°31' E 139°48'2 2.4
2017-Sep-20 23:44N 35°31' E 139°50'0 0.0
2017-Sep-20 23:23N 35°31' E 139°50'0 0.0
2017-Sep-20 22:59N 35°31' E 139°50'0 0.2
2017-Sep-20 22:30N 35°31' E 139°51'3 6.8
2017-Sep-20 22:00N 35°27' E 139°50'611.8
2017-Sep-20 21:31N 35°23' E 139°46'510.6
2017-Sep-20 21:00N 35°17' E 139°45'611.5
2017-Sep-20 20:30N 35°12' E 139°47'612.4
2017-Sep-20 20:01N 35°06' E 139°45'612.6
2017-Sep-20 19:30N 35°01' E 139°40'238 6.5
2017-Sep-19 06:55N 34°06' E 134°58'613.8
2017-Sep-19 06:30N 34°12' E 134°58'1112.9
2017-Sep-19 05:37N 34°23' E 135°03'112.9
2017-Sep-19 05:30N 34°23' E 135°05'612.2
2017-Sep-19 05:00N 34°23' E 135°12'2 0.5
2017-Sep-19 00:23N 34°25' E 135°14'1 1.8
2017-Sep-18 23:59N 34°24' E 135°14'3 5.1
2017-Sep-18 23:22N 34°26' E 135°11'410.8
2017-Sep-18 23:00N 34°29' E 135°14'4 7.1
2017-Sep-18 22:23N 34°31' E 135°18'0 0.1
2017-Sep-18 21:59N 34°31' E 135°18'0 0.1
2017-Sep-18 21:05N 34°31' E 135°18'0 0.1
2017-Sep-18 20:59N 34°31' E 135°18'0 0.0
2017-Sep-18 20:29N 34°31' E 135°18'0 0.0
2017-Sep-18 19:53N 34°31' E 135°18'0 0.0
2017-Sep-18 19:23N 34°31' E 135°18'0 0.0
2017-Sep-18 18:59N 34°31' E 135°18'0 0.0
2017-Sep-18 18:29N 34°31' E 135°18'0 0.0
2017-Sep-18 17:59N 34°31' E 135°18'0 0.0
2017-Sep-18 17:29N 34°31' E 135°18'0 0.0
2017-Sep-18 16:59N 34°31' E 135°18'0 0.0
2017-Sep-18 15:41N 34°31' E 135°18'0 0.0
2017-Sep-18 15:17N 34°31' E 135°18'0 0.2
2017-Sep-18 14:59N 34°31' E 135°18'0 0.0
2017-Sep-18 14:29N 34°31' E 135°18'0 0.0
2017-Sep-18 13:47N 34°31' E 135°18'0 0.0
2017-Sep-18 13:29N 34°31' E 135°18'0 0.1
2017-Sep-18 12:53N 34°31' E 135°18'0 0.0
2017-Sep-18 12:29N 34°31' E 135°18'0 0.0
2017-Sep-18 11:59N 34°31' E 135°18'0 0.1
2017-Sep-18 11:29N 34°31' E 135°18'0 0.0
2017-Sep-18 10:41N 34°31' E 135°18'0 0.0
2017-Sep-18 10:29N 34°31' E 135°18'0 0.0
2017-Sep-18 09:59N 34°31' E 135°18'0 0.0
2017-Sep-18 09:29N 34°31' E 135°18'0 0.0
2017-Sep-18 08:59N 34°31' E 135°18'0 0.0
2017-Sep-18 08:23N 34°31' E 135°18'0 0.0
2017-Sep-18 07:59N 34°31' E 135°18'0 0.0
2017-Sep-18 07:29N 34°31' E 135°18'0 0.0
2017-Sep-18 06:59N 34°31' E 135°18'0 0.0
2017-Sep-18 06:29N 34°31' E 135°18'0 0.0
2017-Sep-18 05:53N 34°31' E 135°18'0 0.0
2017-Sep-18 05:29N 34°31' E 135°18'0 0.0
2017-Sep-18 04:59N 34°31' E 135°18'0 0.0
2017-Sep-18 04:29N 34°31' E 135°18'0 0.0
2017-Sep-18 03:59N 34°31' E 135°18'0 0.0
2017-Sep-18 03:11N 34°31' E 135°18'0 0.1
2017-Sep-18 02:41N 34°31' E 135°18'0 0.0
2017-Sep-18 02:29N 34°31' E 135°18'0 0.0
2017-Sep-18 01:59N 34°31' E 135°18'0 0.1
2017-Sep-18 01:17N 34°31' E 135°18'0 0.0
2017-Sep-18 00:59N 34°31' E 135°18'0 0.0
2017-Sep-18 00:23N 34°31' E 135°18'0 0.0
2017-Sep-17 23:59N 34°31' E 135°18'0 0.0
2017-Sep-17 23:29N 34°31' E 135°18'0 0.0
2017-Sep-17 22:53N 34°31' E 135°18'0 0.0
2017-Sep-17 22:17N 34°31' E 135°18'0 0.0
2017-Sep-17 21:53N 34°31' E 135°18'0 0.0
2017-Sep-17 21:29N 34°31' E 135°18'0 0.0
2017-Sep-17 20:47N 34°31' E 135°18'0 0.0
2017-Sep-17 20:29N 34°31' E 135°18'0 0.0
2017-Sep-17 19:59N 34°31' E 135°18'0 0.0
2017-Sep-17 19:29N 34°31' E 135°18'0 0.0
2017-Sep-17 18:59N 34°31' E 135°18'0 0.0
2017-Sep-17 18:29N 34°31' E 135°18'0 0.0
2017-Sep-17 17:59N 34°31' E 135°18'0 0.0
2017-Sep-17 17:29N 34°32' E 135°18'0 0.0
2017-Sep-17 16:59N 34°31' E 135°18'0 0.0
2017-Sep-17 16:29N 34°31' E 135°18'0 0.0
2017-Sep-17 15:59N 34°31' E 135°18'0 0.0
2017-Sep-17 15:29N 34°32' E 135°18'0 0.0
2017-Sep-17 14:59N 34°32' E 135°18'0 0.0
2017-Sep-17 14:29N 34°32' E 135°18'0 0.1
2017-Sep-17 13:59N 34°32' E 135°18'0 0.0
2017-Sep-17 13:29N 34°32' E 135°18'0 0.1
2017-Sep-17 12:47N 34°32' E 135°18'0 0.0
2017-Sep-17 12:17N 34°32' E 135°18'0 0.3
2017-Sep-17 11:59N 34°32' E 135°18'0 0.1
2017-Sep-17 11:23N 34°31' E 135°18'0 0.0
2017-Sep-17 10:59N 34°31' E 135°18'0 0.0
2017-Sep-17 10:28N 34°31' E 135°18'0 0.0
2017-Sep-17 09:59N 34°31' E 135°18'0 0.0
2017-Sep-17 09:29N 34°31' E 135°18'0 0.0
2017-Sep-17 08:53N 34°31' E 135°18'0 0.0
2017-Sep-17 08:29N 34°31' E 135°18'0 0.0
2017-Sep-17 07:59N 34°31' E 135°18'0 0.0
2017-Sep-17 07:29N 34°31' E 135°18'0 0.0
2017-Sep-17 06:59N 34°31' E 135°18'0 0.0
2017-Sep-17 06:29N 34°31' E 135°18'0 0.0
2017-Sep-17 05:59N 34°31' E 135°18'0 0.0
2017-Sep-17 05:30N 34°31' E 135°18'0 0.0
2017-Sep-17 05:00N 34°31' E 135°18'0 0.0
2017-Sep-17 04:23N 34°31' E 135°18'0 0.0
2017-Sep-17 03:59N 34°31' E 135°18'0 0.0
2017-Sep-17 03:29N 34°31' E 135°18'0 0.0
2017-Sep-17 02:59N 34°31' E 135°18'0 0.0
2017-Sep-17 02:29N 34°31' E 135°18'0 0.0
2017-Sep-17 01:53N 34°31' E 135°18'0 0.0
2017-Sep-17 01:29N 34°31' E 135°18'0 0.0
2017-Sep-17 00:59N 34°31' E 135°18'0 0.0
2017-Sep-17 00:29N 34°31' E 135°18'0 0.0
2017-Sep-16 23:59N 34°31' E 135°18'0 0.0
2017-Sep-16 23:29N 34°31' E 135°18'0 0.0
2017-Sep-16 22:57N 34°31' E 135°18'0 0.1
2017-Sep-16 22:29N 34°31' E 135°18'0 0.0
2017-Sep-16 21:59N 34°31' E 135°18'0 0.0
2017-Sep-16 21:29N 34°31' E 135°18'0 0.0
2017-Sep-16 20:59N 34°31' E 135°18'0 0.0
2017-Sep-16 20:28N 34°31' E 135°18'0 0.0
2017-Sep-16 20:00N 34°31' E 135°18'0 0.0
2017-Sep-16 19:29N 34°31' E 135°18'0 0.0
2017-Sep-16 18:53N 34°31' E 135°18'0 0.0
2017-Sep-16 18:29N 34°31' E 135°18'0 0.0
2017-Sep-16 17:59N 34°31' E 135°18'0 0.0
2017-Sep-16 17:23N 34°31' E 135°18'0 0.0
2017-Sep-16 16:59N 34°31' E 135°18'0 0.0
2017-Sep-16 16:29N 34°31' E 135°18'0 0.0
2017-Sep-16 15:59N 34°31' E 135°18'0 0.0
2017-Sep-16 15:29N 34°31' E 135°18'0 0.0
2017-Sep-16 14:53N 34°31' E 135°18'0 0.0
2017-Sep-16 14:29N 34°31' E 135°18'0 0.0
2017-Sep-16 13:59N 34°31' E 135°18'0 0.0
2017-Sep-16 13:22N 34°31' E 135°18'0 0.0
2017-Sep-16 12:53N 34°31' E 135°18'0 0.1
2017-Sep-16 12:28N 34°31' E 135°18'0 0.1
2017-Sep-16 12:00N 34°31' E 135°18'0 0.0
2017-Sep-16 11:28N 34°31' E 135°18'0 0.1
2017-Sep-16 10:57N 34°31' E 135°18'0 0.0
2017-Sep-16 10:30N 34°31' E 135°18'0 0.0
2017-Sep-16 09:59N 34°31' E 135°18'0 0.0
2017-Sep-16 09:26N 34°31' E 135°18'0 0.0
2017-Sep-16 08:17N 34°31' E 135°18'0 0.0
2017-Sep-16 06:59N 34°31' E 135°18'0 0.0
2017-Sep-16 06:29N 34°31' E 135°18'0 0.0
2017-Sep-16 05:59N 34°31' E 135°18'0 0.0
2017-Sep-16 05:29N 34°31' E 135°18'0 0.0
2017-Sep-16 04:56N 34°31' E 135°18'0 0.0
2017-Sep-16 03:46N 34°31' E 135°18'0 0.0
2017-Sep-16 03:24N 34°31' E 135°18'0 0.0
2017-Sep-16 03:00N 34°31' E 135°18'0 0.0
2017-Sep-16 02:29N 34°31' E 135°18'0 0.0
2017-Sep-16 01:59N 34°31' E 135°18'0 0.0
2017-Sep-16 01:29N 34°31' E 135°18'0 0.0
2017-Sep-16 00:52N 34°31' E 135°18'0 0.0
2017-Sep-16 00:17N 34°31' E 135°18'0 0.0
2017-Sep-15 23:59N 34°31' E 135°18'0 0.0
2017-Sep-15 23:29N 34°31' E 135°18'0 0.0
2017-Sep-15 22:40N 34°31' E 135°18'0 0.0
2017-Sep-15 22:28N 34°31' E 135°18'0 0.0
2017-Sep-15 21:47N 34°31' E 135°18'0 0.0
2017-Sep-15 21:28N 34°31' E 135°18'0 0.0
2017-Sep-15 19:58N 34°31' E 135°18'0 0.0
2017-Sep-15 19:22N 34°31' E 135°18'0 0.0
2017-Sep-15 18:52N 34°31' E 135°18'0 0.0
2017-Sep-15 17:28N 34°31' E 135°18'0 0.0
2017-Sep-15 16:58N 34°31' E 135°18'0 0.0
2017-Sep-15 16:10N 34°31' E 135°18'0 0.0
2017-Sep-15 15:10N 34°31' E 135°18'0 0.0
2017-Sep-15 14:52N 34°31' E 135°18'0 0.0
2017-Sep-15 14:22N 34°31' E 135°18'0 0.0
2017-Sep-15 13:16N 34°31' E 135°18'0 0.0
2017-Sep-15 12:34N 34°31' E 135°18'0 0.0
2017-Sep-15 12:22N 34°31' E 135°18'0 0.0
2017-Sep-15 11:46N 34°31' E 135°18'0 0.0
2017-Sep-15 11:28N 34°31' E 135°18'0 0.0
2017-Sep-15 10:52N 34°31' E 135°18'1 1.8
2017-Sep-15 10:28N 34°31' E 135°17'510.2
2017-Sep-15 10:00N 34°28' E 135°13'612.1
2017-Sep-15 09:30N 34°25' E 135°07'712.5
2017-Sep-15 08:57N 34°20' E 135°01'612.9
2017-Sep-15 08:30N 34°14' E 134°60'613.1
2017-Sep-15 08:00N 34°08' E 134°60'  
Track history (hours):
 
Tides and Currents Weather Stations Pressure Air Temp Water Temp Dewpoint Dewpoint Depression Visibility Wind Speed Wind Dir Waves Ship Positions

Toyomasa Maru

Last reported at 2017-Sep-24 07:07 UTC. Time now 2017-Sep-24 10:19 UTC.
Position N 35°30' E 140°02'.

Length 101 m; draft 4.3 m.

Type: Tanker. MMSI: 431300401.

Date/timePositionNaut miles runAvg speedWind from/ knotsBaromVisibWave heightAir tempDewpointWater temp
2017-Sep-24 07:07N 35°30' E 140°02'1 3.6
2017-Sep-24 06:58N 35°30' E 140°01'2 4.2
2017-Sep-24 06:30N 35°32' E 139°60'1 2.2
2017-Sep-24 06:00N 35°33' E 140°00'0 0.2
2017-Sep-24 04:50N 35°33' E 140°00'0 0.0
2017-Sep-24 03:50N 35°33' E 140°00'0 0.0
2017-Sep-23 23:26N 35°33' E 140°00'0 0.0
2017-Sep-23 22:35N 35°33' E 140°00'0 0.0
2017-Sep-23 19:38N 35°33' E 140°00'  
2017-Sep-21 09:43N 34°56' E 139°30'512.1
2017-Sep-21 09:16N 34°60' E 139°34'312.9
2017-Sep-21 09:00N 35°02' E 139°37'612.9
2017-Sep-21 08:30N 35°07' E 139°43'612.7
2017-Sep-21 08:00N 35°12' E 139°46'611.9
2017-Sep-21 07:30N 35°18' E 139°44'611.2
2017-Sep-21 07:00N 35°23' E 139°42'611.5
2017-Sep-21 06:30N 35°28' E 139°47'4 8.4
2017-Sep-21 06:00N 35°32' E 139°48'0 0.1
2017-Sep-21 05:30N 35°32' E 139°48'0 0.0
2017-Sep-21 05:00N 35°32' E 139°48'0 0.0
2017-Sep-21 04:30N 35°32' E 139°48'0 0.0
2017-Sep-21 04:00N 35°32' E 139°48'0 0.0
2017-Sep-21 03:30N 35°32' E 139°48'0 0.0
2017-Sep-21 03:00N 35°32' E 139°48'0 0.0
2017-Sep-21 02:27N 35°32' E 139°48'0 0.0
2017-Sep-21 02:00N 35°32' E 139°48'0 0.0
2017-Sep-21 01:30N 35°32' E 139°48'0 0.0
2017-Sep-21 01:01N 35°32' E 139°48'1 1.9
2017-Sep-21 00:30N 35°31' E 139°48'2 2.4
2017-Sep-20 23:44N 35°31' E 139°50'0 0.0
2017-Sep-20 23:23N 35°31' E 139°50'0 0.0
2017-Sep-20 22:59N 35°31' E 139°50'0 0.2
2017-Sep-20 22:30N 35°31' E 139°51'3 6.8
2017-Sep-20 22:00N 35°27' E 139°50'611.8
2017-Sep-20 21:31N 35°23' E 139°46'510.6
2017-Sep-20 21:00N 35°17' E 139°45'611.5
2017-Sep-20 20:30N 35°12' E 139°47'612.4
2017-Sep-20 20:01N 35°06' E 139°45'612.6
2017-Sep-20 19:30N 35°01' E 139°40'238 6.5
2017-Sep-19 06:55N 34°06' E 134°58'613.8
2017-Sep-19 06:30N 34°12' E 134°58'1112.9
2017-Sep-19 05:37N 34°23' E 135°03'112.9
2017-Sep-19 05:30N 34°23' E 135°05'612.2
2017-Sep-19 05:00N 34°23' E 135°12'2 0.5
2017-Sep-19 00:23N 34°25' E 135°14'1 1.8
2017-Sep-18 23:59N 34°24' E 135°14'3 5.1
2017-Sep-18 23:22N 34°26' E 135°11'410.8
2017-Sep-18 23:00N 34°29' E 135°14'4 7.1
2017-Sep-18 22:23N 34°31' E 135°18'0 0.1
2017-Sep-18 21:59N 34°31' E 135°18'0 0.1
2017-Sep-18 21:05N 34°31' E 135°18'0 0.1
2017-Sep-18 20:59N 34°31' E 135°18'0 0.0
2017-Sep-18 20:29N 34°31' E 135°18'0 0.0
2017-Sep-18 19:53N 34°31' E 135°18'0 0.0
2017-Sep-18 19:23N 34°31' E 135°18'0 0.0
2017-Sep-18 18:59N 34°31' E 135°18'0 0.0
2017-Sep-18 18:29N 34°31' E 135°18'0 0.0
2017-Sep-18 17:59N 34°31' E 135°18'0 0.0
2017-Sep-18 17:29N 34°31' E 135°18'0 0.0
2017-Sep-18 16:59N 34°31' E 135°18'0 0.0
2017-Sep-18 15:41N 34°31' E 135°18'0 0.0
2017-Sep-18 15:17N 34°31' E 135°18'0 0.2
2017-Sep-18 14:59N 34°31' E 135°18'0 0.0
2017-Sep-18 14:29N 34°31' E 135°18'0 0.0
2017-Sep-18 13:47N 34°31' E 135°18'0 0.0
2017-Sep-18 13:29N 34°31' E 135°18'0 0.1
2017-Sep-18 12:53N 34°31' E 135°18'0 0.0
2017-Sep-18 12:29N 34°31' E 135°18'0 0.0
2017-Sep-18 11:59N 34°31' E 135°18'0 0.1
2017-Sep-18 11:29N 34°31' E 135°18'0 0.0
2017-Sep-18 10:41N 34°31' E 135°18'0 0.0
2017-Sep-18 10:29N 34°31' E 135°18'0 0.0
2017-Sep-18 09:59N 34°31' E 135°18'0 0.0
2017-Sep-18 09:29N 34°31' E 135°18'0 0.0
2017-Sep-18 08:59N 34°31' E 135°18'0 0.0
2017-Sep-18 08:23N 34°31' E 135°18'0 0.0
2017-Sep-18 07:59N 34°31' E 135°18'0 0.0
2017-Sep-18 07:29N 34°31' E 135°18'0 0.0
2017-Sep-18 06:59N 34°31' E 135°18'0 0.0
2017-Sep-18 06:29N 34°31' E 135°18'0 0.0
2017-Sep-18 05:53N 34°31' E 135°18'0 0.0
2017-Sep-18 05:29N 34°31' E 135°18'0 0.0
2017-Sep-18 04:59N 34°31' E 135°18'0 0.0
2017-Sep-18 04:29N 34°31' E 135°18'0 0.0
2017-Sep-18 03:59N 34°31' E 135°18'0 0.0
2017-Sep-18 03:11N 34°31' E 135°18'0 0.1
2017-Sep-18 02:41N 34°31' E 135°18'0 0.0
2017-Sep-18 02:29N 34°31' E 135°18'0 0.0
2017-Sep-18 01:59N 34°31' E 135°18'0 0.1
2017-Sep-18 01:17N 34°31' E 135°18'0 0.0
2017-Sep-18 00:59N 34°31' E 135°18'0 0.0
2017-Sep-18 00:23N 34°31' E 135°18'0 0.0
2017-Sep-17 23:59N 34°31' E 135°18'0 0.0
2017-Sep-17 23:29N 34°31' E 135°18'0 0.0
2017-Sep-17 22:53N 34°31' E 135°18'0 0.0
2017-Sep-17 22:17N 34°31' E 135°18'0 0.0
2017-Sep-17 21:53N 34°31' E 135°18'0 0.0
2017-Sep-17 21:29N 34°31' E 135°18'0 0.0
2017-Sep-17 20:47N 34°31' E 135°18'0 0.0
2017-Sep-17 20:29N 34°31' E 135°18'0 0.0
2017-Sep-17 19:59N 34°31' E 135°18'0 0.0
2017-Sep-17 19:29N 34°31' E 135°18'0 0.0
2017-Sep-17 18:59N 34°31' E 135°18'0 0.0
2017-Sep-17 18:29N 34°31' E 135°18'0 0.0
2017-Sep-17 17:59N 34°31' E 135°18'0 0.0
2017-Sep-17 17:29N 34°32' E 135°18'0 0.0
2017-Sep-17 16:59N 34°31' E 135°18'0 0.0
2017-Sep-17 16:29N 34°31' E 135°18'0 0.0
2017-Sep-17 15:59N 34°31' E 135°18'0 0.0
2017-Sep-17 15:29N 34°32' E 135°18'0 0.0
2017-Sep-17 14:59N 34°32' E 135°18'0 0.0
2017-Sep-17 14:29N 34°32' E 135°18'0 0.1
2017-Sep-17 13:59N 34°32' E 135°18'0 0.0
2017-Sep-17 13:29N 34°32' E 135°18'0 0.1
2017-Sep-17 12:47N 34°32' E 135°18'0 0.0
2017-Sep-17 12:17N 34°32' E 135°18'0 0.3
2017-Sep-17 11:59N 34°32' E 135°18'0 0.1
2017-Sep-17 11:23N 34°31' E 135°18'0 0.0
2017-Sep-17 10:59N 34°31' E 135°18'0 0.0
2017-Sep-17 10:28N 34°31' E 135°18'0 0.0
2017-Sep-17 09:59N 34°31' E 135°18'0 0.0
2017-Sep-17 09:29N 34°31' E 135°18'0 0.0
2017-Sep-17 08:53N 34°31' E 135°18'0 0.0
2017-Sep-17 08:29N 34°31' E 135°18'0 0.0
2017-Sep-17 07:59N 34°31' E 135°18'0 0.0
2017-Sep-17 07:29N 34°31' E 135°18'0 0.0
2017-Sep-17 06:59N 34°31' E 135°18'0 0.0
2017-Sep-17 06:29N 34°31' E 135°18'0 0.0
2017-Sep-17 05:59N 34°31' E 135°18'0 0.0
2017-Sep-17 05:30N 34°31' E 135°18'0 0.0
2017-Sep-17 05:00N 34°31' E 135°18'0 0.0
2017-Sep-17 04:23N 34°31' E 135°18'0 0.0
2017-Sep-17 03:59N 34°31' E 135°18'0 0.0
2017-Sep-17 03:29N 34°31' E 135°18'0 0.0
2017-Sep-17 02:59N 34°31' E 135°18'0 0.0
2017-Sep-17 02:29N 34°31' E 135°18'0 0.0
2017-Sep-17 01:53N 34°31' E 135°18'0 0.0
2017-Sep-17 01:29N 34°31' E 135°18'0 0.0
2017-Sep-17 00:59N 34°31' E 135°18'0 0.0
2017-Sep-17 00:29N 34°31' E 135°18'0 0.0
2017-Sep-16 23:59N 34°31' E 135°18'0 0.0
2017-Sep-16 23:29N 34°31' E 135°18'0 0.0
2017-Sep-16 22:57N 34°31' E 135°18'0 0.1
2017-Sep-16 22:29N 34°31' E 135°18'0 0.0
2017-Sep-16 21:59N 34°31' E 135°18'0 0.0
2017-Sep-16 21:29N 34°31' E 135°18'0 0.0
2017-Sep-16 20:59N 34°31' E 135°18'0 0.0
2017-Sep-16 20:28N 34°31' E 135°18'0 0.0
2017-Sep-16 20:00N 34°31' E 135°18'0 0.0
2017-Sep-16 19:29N 34°31' E 135°18'0 0.0
2017-Sep-16 18:53N 34°31' E 135°18'0 0.0
2017-Sep-16 18:29N 34°31' E 135°18'0 0.0
2017-Sep-16 17:59N 34°31' E 135°18'0 0.0
2017-Sep-16 17:23N 34°31' E 135°18'0 0.0
2017-Sep-16 16:59N 34°31' E 135°18'0 0.0
2017-Sep-16 16:29N 34°31' E 135°18'0 0.0
2017-Sep-16 15:59N 34°31' E 135°18'0 0.0
2017-Sep-16 15:29N 34°31' E 135°18'0 0.0
2017-Sep-16 14:53N 34°31' E 135°18'0 0.0
2017-Sep-16 14:29N 34°31' E 135°18'0 0.0
2017-Sep-16 13:59N 34°31' E 135°18'0 0.0
2017-Sep-16 13:22N 34°31' E 135°18'0 0.0
2017-Sep-16 12:53N 34°31' E 135°18'0 0.1
2017-Sep-16 12:28N 34°31' E 135°18'0 0.1
2017-Sep-16 12:00N 34°31' E 135°18'0 0.0
2017-Sep-16 11:28N 34°31' E 135°18'0 0.1
2017-Sep-16 10:57N 34°31' E 135°18'0 0.0
2017-Sep-16 10:30N 34°31' E 135°18'0 0.0
2017-Sep-16 09:59N 34°31' E 135°18'0 0.0
2017-Sep-16 09:26N 34°31' E 135°18'0 0.0
2017-Sep-16 08:17N 34°31' E 135°18'0 0.0
2017-Sep-16 06:59N 34°31' E 135°18'0 0.0
2017-Sep-16 06:29N 34°31' E 135°18'0 0.0
2017-Sep-16 05:59N 34°31' E 135°18'0 0.0
2017-Sep-16 05:29N 34°31' E 135°18'0 0.0
2017-Sep-16 04:56N 34°31' E 135°18'0 0.0
2017-Sep-16 03:46N 34°31' E 135°18'0 0.0
2017-Sep-16 03:24N 34°31' E 135°18'0 0.0
2017-Sep-16 03:00N 34°31' E 135°18'0 0.0
2017-Sep-16 02:29N 34°31' E 135°18'0 0.0
2017-Sep-16 01:59N 34°31' E 135°18'0 0.0
2017-Sep-16 01:29N 34°31' E 135°18'0 0.0
2017-Sep-16 00:52N 34°31' E 135°18'0 0.0
2017-Sep-16 00:17N 34°31' E 135°18'0 0.0
2017-Sep-15 23:59N 34°31' E 135°18'0 0.0
2017-Sep-15 23:29N 34°31' E 135°18'0 0.0
2017-Sep-15 22:40N 34°31' E 135°18'0 0.0
2017-Sep-15 22:28N 34°31' E 135°18'0 0.0
2017-Sep-15 21:47N 34°31' E 135°18'0 0.0
2017-Sep-15 21:28N 34°31' E 135°18'0 0.0
2017-Sep-15 19:58N 34°31' E 135°18'0 0.0
2017-Sep-15 19:22N 34°31' E 135°18'0 0.0
2017-Sep-15 18:52N 34°31' E 135°18'0 0.0
2017-Sep-15 17:28N 34°31' E 135°18'0 0.0
2017-Sep-15 16:58N 34°31' E 135°18'0 0.0
2017-Sep-15 16:10N 34°31' E 135°18'0 0.0
2017-Sep-15 15:10N 34°31' E 135°18'0 0.0
2017-Sep-15 14:52N 34°31' E 135°18'0 0.0
2017-Sep-15 14:22N 34°31' E 135°18'0 0.0
2017-Sep-15 13:16N 34°31' E 135°18'0 0.0
2017-Sep-15 12:34N 34°31' E 135°18'0 0.0
2017-Sep-15 12:22N 34°31' E 135°18'0 0.0
2017-Sep-15 11:46N 34°31' E 135°18'0 0.0
2017-Sep-15 11:28N 34°31' E 135°18'0 0.0
2017-Sep-15 10:52N 34°31' E 135°18'1 1.8
2017-Sep-15 10:28N 34°31' E 135°17'510.2
2017-Sep-15 10:00N 34°28' E 135°13'612.1
2017-Sep-15 09:30N 34°25' E 135°07'712.5
2017-Sep-15 08:57N 34°20' E 135°01'612.9
2017-Sep-15 08:30N 34°14' E 134°60'613.1
2017-Sep-15 08:00N 34°08' E 134°60'  

Dump ship's entire track history